Time;durP1;ratioP1;P1;durP2;ratioP2;P2;SDS_P1;SDS_P2;PMS_P1;PMS_P2;Temp;Humidity;BMP_temperature;BMP_pressure;BME280_temperature;BME280_humidity;BME280_pressure;Samples;Min_cycle;Max_cycle;Signal;HPM_P1;HPM_P2
2022/01/17 00:01:26;;;;;;;72.65;37.22;;;;;;;;;;5117983;27;20027;-73
2022/01/17 00:03:51;;;;;;;61.58;32.65;;;;;;;;;;5118926;27;20027;-74
2022/01/17 00:06:16;;;;;;;60.45;33.35;;;;;;;;;;5117909;27;20027;-74
2022/01/17 00:08:43;;;;;;;79.25;39.20;;;;;;;;;;5119908;27;20024;-74
2022/01/17 00:11:09;;;;;;;71.47;35.85;;;;;;;;;;5119900;27;20034;-74
2022/01/17 00:13:35;;;;;;;95.93;47.58;;;;;;;;;;5119629;27;20035;-74
2022/01/17 00:16:09;;;;;;;84.22;41.72;;;;;;;;;;5119519;27;20034;-73
2022/01/17 00:21:03;;;;;;;59.30;31.20;;;;;;;;;;5118633;27;20034;-73
2022/01/17 00:23:28;;;;;;;44.55;24.27;;;;;;;;;;5117651;27;20035;-73
2022/01/17 00:25:53;;;;;;;48.05;26.40;;;;;;;;;;5119687;27;20023;-74
2022/01/17 00:28:19;;;;;;;47.55;27.10;;;;;;;;;;5118215;27;20042;-73
2022/01/17 00:30:44;;;;;;;68.18;33.63;;;;;;;;;;5118998;27;20023;-73
2022/01/17 00:33:11;;;;;;;78.32;40.38;;;;;;;;;;5118611;27;20373;-74
2022/01/17 00:35:36;;;;;;;41.88;22.52;;;;;;;;;;5118260;27;20019;-73
2022/01/17 00:38:01;;;;;;;67.03;36.22;;;;;;;;;;5119922;27;20023;-73
2022/01/17 00:40:27;;;;;;;118.57;64.68;;;;;;;;;;5118744;27;20046;-73
2022/01/17 00:42:52;;;;;;;111.05;57.80;;;;;;;;;;5119012;27;20023;-73
2022/01/17 00:45:24;;;;;;;105.93;56.47;;;;;;;;;;5118690;27;20350;-74
2022/01/17 00:47:50;;;;;;;74.82;41.90;;;;;;;;;;5118873;27;20023;-74
2022/01/17 00:50:16;;;;;;;38.50;20.65;;;;;;;;;;5118272;27;20721;-74
2022/01/17 00:52:41;;;;;;;27.23;16.42;;;;;;;;;;5118356;27;20152;-73
2022/01/17 00:55:07;;;;;;;48.65;27.92;;;;;;;;;;5116802;27;20427;-73
2022/01/17 00:57:32;;;;;;;49.30;28.73;;;;;;;;;;5116711;27;20363;-74
2022/01/17 00:59:57;;;;;;;48.97;29.70;;;;;;;;;;5117992;27;20478;-73
2022/01/17 01:02:23;;;;;;;62.08;35.90;;;;;;;;;;5117583;27;20412;-74
2022/01/17 01:04:48;;;;;;;72.53;37.80;;;;;;;;;;5118072;27;20031;-74
2022/01/17 01:07:13;;;;;;;80.88;46.78;;;;;;;;;;5117829;27;20147;-74
2022/01/17 01:09:50;;;;;;;73.50;40.25;;;;;;;;;;5119098;27;20023;-74
2022/01/17 01:12:15;;;;;;;56.95;32.30;;;;;;;;;;5117599;27;20047;-74
2022/01/17 01:14:42;;;;;;;59.42;33.03;;;;;;;;;;5116679;27;20023;-74
2022/01/17 01:17:19;;;;;;;63.25;35.05;;;;;;;;;;5118326;27;20462;-73
2022/01/17 01:19:44;;;;;;;51.13;30.20;;;;;;;;;;5119139;27;20043;-73
2022/01/17 01:27:57;;;;;;;59.42;30.77;;;;;;;;;;5117648;27;20050;-74
2022/01/17 01:30:25;;;;;;;50.45;26.02;;;;;;;;;;5116578;27;20442;-74
2022/01/17 01:32:54;;;;;;;47.60;26.40;;;;;;;;;;5115358;27;20507;-74
2022/01/17 01:35:23;;;;;;;30.05;16.83;;;;;;;;;;5117972;27;20019;-73
2022/01/17 01:37:49;;;;;;;24.38;14.75;;;;;;;;;;5117561;27;20049;-74
2022/01/17 01:40:16;;;;;;;24.77;13.52;;;;;;;;;;5115782;27;20019;-75
2022/01/17 01:42:41;;;;;;;20.08;13.30;;;;;;;;;;5117440;27;20050;-74
2022/01/17 01:45:07;;;;;;;20.65;11.23;;;;;;;;;;5117264;27;20054;-74
2022/01/17 01:47:33;;;;;;;26.42;14.30;;;;;;;;;;5115940;27;20467;-74
2022/01/17 01:49:59;;;;;;;27.33;16.38;;;;;;;;;;5117863;27;20373;-74
2022/01/17 01:52:24;;;;;;;44.85;23.20;;;;;;;;;;5117065;27;20033;-75
2022/01/17 01:54:50;;;;;;;35.90;19.95;;;;;;;;;;5103245;27;20051;-74
2022/01/17 01:57:15;;;;;;;37.08;20.23;;;;;;;;;;5117229;27;20023;-74
2022/01/17 01:59:40;;;;;;;32.30;17.60;;;;;;;;;;5112047;27;20423;-74
2022/01/17 02:02:06;;;;;;;28.42;17.15;;;;;;;;;;5113662;27;20031;-74
2022/01/17 02:04:32;;;;;;;33.22;20.00;;;;;;;;;;5096809;28;20012;-74
2022/01/17 02:06:57;;;;;;;35.22;19.90;;;;;;;;;;5096391;28;20027;-75
2022/01/17 02:09:23;;;;;;;28.27;16.48;;;;;;;;;;5096889;28;20034;-74
2022/01/17 02:11:49;;;;;;;27.02;17.27;;;;;;;;;;5097523;28;20051;-75
2022/01/17 02:14:14;;;;;;;39.65;22.65;;;;;;;;;;5096415;28;20037;-74
2022/01/17 02:16:41;;;;;;;62.20;31.95;;;;;;;;;;5097297;28;20028;-74
2022/01/17 02:19:07;;;;;;;79.15;39.90;;;;;;;;;;5096347;28;20023;-75
2022/01/17 02:23:57;;;;;;;57.63;31.95;;;;;;;;;;5096358;28;20038;-74
2022/01/17 02:26:23;;;;;;;44.10;23.63;;;;;;;;;;5097407;28;20038;-75
2022/01/17 02:28:50;;;;;;;96.10;43.75;;;;;;;;;;5116354;27;20019;-74
2022/01/17 02:31:15;;;;;;;80.13;37.72;;;;;;;;;;5116785;27;20030;-73
2022/01/17 02:33:41;;;;;;;122.90;52.95;;;;;;;;;;5116194;27;20031;-74
2022/01/17 02:36:07;;;;;;;46.17;22.25;;;;;;;;;;5115893;27;20431;-74
2022/01/17 02:38:32;;;;;;;51.78;26.20;;;;;;;;;;5116558;27;20050;-74
2022/01/17 02:40:57;;;;;;;91.15;51.83;;;;;;;;;;5116175;27;20912;-74
2022/01/17 02:43:24;;;;;;;118.32;61.28;;;;;;;;;;5116099;27;20023;-75
2022/01/17 02:48:19;;;;;;;78.47;43.85;;;;;;;;;;5116022;27;20106;-75
2022/01/17 02:50:44;;;;;;;78.60;39.28;;;;;;;;;;5117243;27;20015;-75
2022/01/17 02:53:10;;;;;;;65.60;33.83;;;;;;;;;;5114543;27;20091;-74
2022/01/17 02:55:36;;;;;;;53.85;26.67;;;;;;;;;;5114386;27;20462;-75
2022/01/17 02:58:01;;;;;;;83.35;40.58;;;;;;;;;;5116353;27;20043;-75
2022/01/17 03:00:27;;;;;;;77.65;36.03;;;;;;;;;;5115833;27;20061;-74
2022/01/17 03:02:52;;;;;;;80.88;40.53;;;;;;;;;;5114549;27;20238;-74
2022/01/17 03:05:19;;;;;;;79.18;41.10;;;;;;;;;;5117503;27;20027;-74
2022/01/17 03:07:45;;;;;;;94.45;43.00;;;;;;;;;;5116345;27;20015;-73
2022/01/17 03:10:19;;;;;;;81.00;43.47;;;;;;;;;;5115538;27;20080;-73
2022/01/17 03:12:45;;;;;;;68.10;37.55;;;;;;;;;;5114276;27;20057;-73
2022/01/17 03:15:12;;;;;;;55.08;29.33;;;;;;;;;;5116367;27;20019;-73
2022/01/17 03:17:38;;;;;;;51.13;27.45;;;;;;;;;;5115786;27;20018;-73
2022/01/17 03:20:03;;;;;;;55.08;26.92;;;;;;;;;;5114417;27;20109;-73
2022/01/17 03:22:29;;;;;;;61.40;31.88;;;;;;;;;;5115926;27;20054;-73
2022/01/17 03:24:54;;;;;;;46.15;23.83;;;;;;;;;;5115898;27;20059;-73
2022/01/17 03:27:19;;;;;;;44.35;23.27;;;;;;;;;;5115509;27;20030;-75
2022/01/17 03:29:45;;;;;;;52.58;28.70;;;;;;;;;;5103712;28;20085;-74
2022/01/17 03:32:10;;;;;;;47.63;25.58;;;;;;;;;;5101331;28;20039;-74
2022/01/17 03:34:38;;;;;;;56.92;28.58;;;;;;;;;;5115558;27;20019;-74
2022/01/17 03:37:03;;;;;;;36.95;21.20;;;;;;;;;;5115575;27;20019;-74
2022/01/17 03:39:28;;;;;;;28.00;15.05;;;;;;;;;;5114135;28;20019;-75
2022/01/17 03:41:54;;;;;;;23.75;12.85;;;;;;;;;;5116416;27;20019;-73
2022/01/17 03:44:19;;;;;;;24.98;15.18;;;;;;;;;;5114552;28;20023;-73
2022/01/17 03:46:45;;;;;;;28.60;15.02;;;;;;;;;;5115738;27;20654;-74
2022/01/17 03:49:10;;;;;;;30.08;14.60;;;;;;;;;;5114102;28;20054;-73
2022/01/17 03:51:36;;;;;;;30.50;15.82;;;;;;;;;;5115380;27;20075;-74
2022/01/17 03:54:01;;;;;;;22.13;11.70;;;;;;;;;;5114137;28;20024;-73
2022/01/17 03:56:27;;;;;;;19.35;11.35;;;;;;;;;;5115404;27;20023;-73
2022/01/17 03:58:52;;;;;;;24.33;14.55;;;;;;;;;;5116043;27;20535;-74
2022/01/17 04:01:19;;;;;;;23.40;13.40;;;;;;;;;;5116007;27;20071;-75
2022/01/17 04:03:46;;;;;;;28.58;15.68;;;;;;;;;;5115237;27;20027;-74
2022/01/17 04:06:14;;;;;;;34.10;19.52;;;;;;;;;;5115561;27;20020;-73
2022/01/17 04:08:40;;;;;;;26.35;13.35;;;;;;;;;;5115664;27;20050;-75
2022/01/17 04:11:06;;;;;;;23.25;13.10;;;;;;;;;;5113821;28;20414;-74
2022/01/17 04:13:32;;;;;;;28.55;15.23;;;;;;;;;;5113695;28;20042;-74
2022/01/17 04:15:58;;;;;;;27.05;15.60;;;;;;;;;;5115523;27;20043;-74
2022/01/17 04:18:24;;;;;;;35.67;21.42;;;;;;;;;;5116247;27;20054;-74
2022/01/17 04:20:49;;;;;;;28.27;16.77;;;;;;;;;;5114707;27;20502;-74
2022/01/17 04:23:15;;;;;;;67.80;39.30;;;;;;;;;;5115480;27;20027;-75
2022/01/17 04:25:41;;;;;;;59.67;36.00;;;;;;;;;;5115228;27;20374;-74
2022/01/17 04:28:08;;;;;;;52.17;28.60;;;;;;;;;;5113156;28;20027;-73
2022/01/17 04:30:33;;;;;;;46.85;25.05;;;;;;;;;;5113889;28;20164;-74
2022/01/17 04:32:59;;;;;;;46.53;24.63;;;;;;;;;;5113520;28;20498;-73
2022/01/17 04:35:25;;;;;;;40.65;21.75;;;;;;;;;;5113689;27;20020;-74
2022/01/17 04:37:53;;;;;;;31.92;18.45;;;;;;;;;;5118136;27;20023;-74
2022/01/17 04:40:18;;;;;;;30.30;17.83;;;;;;;;;;5119256;27;20034;-74
2022/01/17 04:42:46;;;;;;;31.80;18.92;;;;;;;;;;5118317;27;20027;-74
2022/01/17 04:45:14;;;;;;;33.90;20.52;;;;;;;;;;5117610;27;20394;-74
2022/01/17 04:47:41;;;;;;;34.38;20.60;;;;;;;;;;5118764;27;20450;-73
2022/01/17 04:50:07;;;;;;;39.95;23.70;;;;;;;;;;5119258;27;20023;-75
2022/01/17 04:52:34;;;;;;;40.42;23.05;;;;;;;;;;5118754;27;20031;-75
2022/01/17 04:55:02;;;;;;;37.85;22.80;;;;;;;;;;5119282;27;20051;-75
2022/01/17 04:57:27;;;;;;;42.92;25.85;;;;;;;;;;5117508;27;20034;-75
2022/01/17 04:59:53;;;;;;;52.85;30.08;;;;;;;;;;5118396;27;20488;-74
2022/01/17 05:02:18;;;;;;;58.03;30.05;;;;;;;;;;5118028;27;20100;-74
2022/01/17 05:04:45;;;;;;;53.50;27.58;;;;;;;;;;5118681;27;20038;-74
2022/01/17 05:07:11;;;;;;;36.08;22.10;;;;;;;;;;5119108;27;20023;-75
2022/01/17 05:09:38;;;;;;;74.95;34.00;;;;;;;;;;5116472;27;20019;-75
2022/01/17 05:12:04;;;;;;;69.93;34.95;;;;;;;;;;5118487;27;20051;-74
2022/01/17 05:14:29;;;;;;;65.53;35.58;;;;;;;;;;5118904;27;20130;-75
2022/01/17 05:17:03;;;;;;;68.18;39.30;;;;;;;;;;5115823;27;20016;-75
2022/01/17 05:22:12;;;;;;;115.82;46.22;;;;;;;;;;5117362;27;20058;-74
2022/01/17 05:24:38;;;;;;;68.18;35.22;;;;;;;;;;5118104;27;20051;-74
2022/01/17 05:27:03;;;;;;;56.47;30.45;;;;;;;;;;5118150;27;20035;-75
2022/01/17 05:29:29;;;;;;;49.03;29.42;;;;;;;;;;5116035;27;20026;-74
2022/01/17 05:31:54;;;;;;;40.22;25.92;;;;;;;;;;5117392;27;20461;-75
2022/01/17 05:34:19;;;;;;;46.05;26.48;;;;;;;;;;5117643;27;20102;-75
2022/01/17 05:36:45;;;;;;;37.22;21.67;;;;;;;;;;5118092;27;20072;-75
2022/01/17 05:39:10;;;;;;;32.30;20.25;;;;;;;;;;5117717;27;20030;-74
2022/01/17 05:41:35;;;;;;;30.90;19.63;;;;;;;;;;5117329;27;20030;-75
2022/01/17 05:44:01;;;;;;;35.50;22.23;;;;;;;;;;5117308;27;20019;-74
2022/01/17 05:46:26;;;;;;;58.75;29.33;;;;;;;;;;5117367;27;20539;-74
2022/01/17 05:48:51;;;;;;;51.50;34.10;;;;;;;;;;5118085;27;20019;-74
2022/01/17 05:51:17;;;;;;;38.75;23.83;;;;;;;;;;5115924;27;20122;-74
2022/01/17 05:53:42;;;;;;;65.05;35.83;;;;;;;;;;5116015;27;20074;-74
2022/01/17 05:56:08;;;;;;;61.15;32.80;;;;;;;;;;5117010;27;20135;-75
2022/01/17 05:58:33;;;;;;;52.38;29.75;;;;;;;;;;5116574;27;20104;-74
2022/01/17 06:00:59;;;;;;;75.35;43.65;;;;;;;;;;5118133;27;20031;-73
2022/01/17 06:03:25;;;;;;;54.95;35.15;;;;;;;;;;5116968;27;20031;-75
2022/01/17 06:05:51;;;;;;;68.78;41.15;;;;;;;;;;5116979;27;20533;-73
2022/01/17 06:08:16;;;;;;;63.63;33.63;;;;;;;;;;5115378;27;20118;-75
2022/01/17 06:10:42;;;;;;;52.28;31.08;;;;;;;;;;5118059;27;20393;-74
2022/01/17 06:13:07;;;;;;;54.33;31.15;;;;;;;;;;5117544;27;20470;-75
2022/01/17 06:15:32;;;;;;;52.58;31.58;;;;;;;;;;5117194;27;20092;-74
2022/01/17 06:17:57;;;;;;;52.15;30.48;;;;;;;;;;5114900;27;20023;-75
2022/01/17 06:20:23;;;;;;;51.10;34.53;;;;;;;;;;5116725;27;20027;-75
2022/01/17 06:22:48;;;;;;;58.80;41.33;;;;;;;;;;5116490;27;20027;-75
2022/01/17 06:25:13;;;;;;;79.35;51.30;;;;;;;;;;5115021;27;20074;-74
2022/01/17 06:27:39;;;;;;;59.05;35.97;;;;;;;;;;5116565;27;20015;-74
2022/01/17 06:30:05;;;;;;;50.90;31.90;;;;;;;;;;5116319;27;20071;-74
2022/01/17 06:32:31;;;;;;;49.75;34.03;;;;;;;;;;5115933;27;20424;-74
2022/01/17 06:34:56;;;;;;;44.63;29.55;;;;;;;;;;5117436;27;20030;-74
2022/01/17 06:37:22;;;;;;;46.40;30.73;;;;;;;;;;5116375;27;20015;-74
2022/01/17 06:39:48;;;;;;;49.00;28.73;;;;;;;;;;5117076;27;20077;-76
2022/01/17 06:42:13;;;;;;;43.28;24.92;;;;;;;;;;5117015;27;20110;-74
2022/01/17 06:44:38;;;;;;;41.10;26.85;;;;;;;;;;5115233;27;20027;-75
2022/01/17 06:47:04;;;;;;;59.33;32.58;;;;;;;;;;5116207;27;20019;-74
2022/01/17 06:49:29;;;;;;;41.05;24.70;;;;;;;;;;5116285;27;20367;-75
2022/01/17 06:51:54;;;;;;;75.07;43.50;;;;;;;;;;5116681;27;20055;-76
2022/01/17 06:54:20;;;;;;;60.22;37.92;;;;;;;;;;5114241;27;20035;-74
2022/01/17 06:56:45;;;;;;;65.35;42.25;;;;;;;;;;5114604;27;20019;-75
2022/01/17 06:59:14;;;;;;;91.13;53.05;;;;;;;;;;5115360;27;20580;-74
2022/01/17 07:01:40;;;;;;;89.55;47.92;;;;;;;;;;5115684;27;20023;-75
2022/01/17 07:04:06;;;;;;;44.35;26.80;;;;;;;;;;5114780;27;20042;-74
2022/01/17 07:06:32;;;;;;;69.68;41.40;;;;;;;;;;5116203;27;20019;-75
2022/01/17 07:08:57;;;;;;;170.63;96.43;;;;;;;;;;5114289;27;20055;-74
2022/01/17 07:11:22;;;;;;;173.20;97.53;;;;;;;;;;5115820;27;20554;-75
2022/01/17 07:13:48;;;;;;;134.70;80.70;;;;;;;;;;5116130;27;20035;-76
2022/01/17 07:16:13;;;;;;;114.47;72.32;;;;;;;;;;5115736;27;20023;-77
2022/01/17 07:18:39;;;;;;;116.18;69.97;;;;;;;;;;5116028;27;20458;-76
2022/01/17 07:21:04;;;;;;;87.90;53.72;;;;;;;;;;5116684;27;20462;-77
2022/01/17 07:23:29;;;;;;;68.68;41.72;;;;;;;;;;5114413;27;20023;-76
2022/01/17 07:25:55;;;;;;;76.45;44.05;;;;;;;;;;5115845;27;20080;-75
2022/01/17 07:28:20;;;;;;;59.88;38.92;;;;;;;;;;5116137;27;20052;-76
2022/01/17 07:30:45;;;;;;;60.70;38.50;;;;;;;;;;5116043;27;20030;-75
2022/01/17 07:33:11;;;;;;;79.45;47.92;;;;;;;;;;5117233;27;20092;-77
2022/01/17 07:35:37;;;;;;;190.90;106.72;;;;;;;;;;5114319;27;20026;-76
2022/01/17 07:38:02;;;;;;;150.90;81.38;;;;;;;;;;5116050;27;20026;-76
2022/01/17 07:40:28;;;;;;;214.02;108.30;;;;;;;;;;5114740;28;20030;-77
2022/01/17 07:42:53;;;;;;;99.18;54.45;;;;;;;;;;5114390;27;20039;-76
2022/01/17 07:45:20;;;;;;;113.57;68.82;;;;;;;;;;5115863;27;20106;-76
2022/01/17 07:48:08;;;;;;;94.80;53.00;;;;;;;;;;5115351;27;20016;-75
2022/01/17 07:50:31;;;;;;;77.43;43.67;;;;;;;;;;5115609;28;20062;-75
2022/01/17 07:52:56;;;;;;;52.72;32.33;;;;;;;;;;5116747;27;20514;-75
2022/01/17 07:55:22;;;;;;;43.97;28.58;;;;;;;;;;5115834;27;20101;-75
2022/01/17 07:57:47;;;;;;;50.10;30.70;;;;;;;;;;5115597;28;20069;-77
2022/01/17 08:00:14;;;;;;;59.50;36.47;;;;;;;;;;5115982;27;20804;-77
2022/01/17 08:02:40;;;;;;;71.50;42.22;;;;;;;;;;5115536;27;20019;-76
2022/01/17 08:05:07;;;;;;;60.92;38.70;;;;;;;;;;5114955;27;20095;-75
2022/01/17 08:07:33;;;;;;;65.03;40.95;;;;;;;;;;5115962;27;20030;-75
2022/01/17 08:09:58;;;;;;;52.33;33.25;;;;;;;;;;5114762;27;20023;-75
2022/01/17 08:12:24;;;;;;;67.00;40.03;;;;;;;;;;5117654;27;20470;-74
2022/01/17 08:14:49;;;;;;;70.15;40.38;;;;;;;;;;5119464;27;20054;-75
2022/01/17 08:17:15;;;;;;;65.88;40.40;;;;;;;;;;5117260;27;20022;-74
2022/01/17 08:19:40;;;;;;;70.95;41.17;;;;;;;;;;5118900;27;20026;-74
2022/01/17 08:22:06;;;;;;;58.15;34.90;;;;;;;;;;5118715;27;20623;-75
2022/01/17 08:24:33;;;;;;;60.72;38.55;;;;;;;;;;5114197;27;20515;-74
2022/01/17 08:26:59;;;;;;;71.28;43.13;;;;;;;;;;5098339;28;20023;-74
2022/01/17 08:29:25;;;;;;;67.50;43.63;;;;;;;;;;5097544;28;20027;-73
2022/01/17 08:31:51;;;;;;;51.85;34.83;;;;;;;;;;5097504;28;20099;-74
2022/01/17 08:34:17;;;;;;;52.75;30.88;;;;;;;;;;5102213;27;20106;-75
2022/01/17 08:36:43;;;;;;;46.22;30.17;;;;;;;;;;5104824;27;20035;-75
2022/01/17 08:39:10;;;;;;;72.50;43.38;;;;;;;;;;5097859;28;20028;-73
2022/01/17 08:41:36;;;;;;;84.50;47.78;;;;;;;;;;5097884;28;20066;-76
2022/01/17 08:44:01;;;;;;;66.30;36.78;;;;;;;;;;5098143;28;20458;-75
2022/01/17 08:46:26;;;;;;;71.63;41.00;;;;;;;;;;5097969;28;20019;-75
2022/01/17 08:48:53;;;;;;;51.75;32.80;;;;;;;;;;5096563;28;20479;-75
2022/01/17 08:51:18;;;;;;;95.53;57.65;;;;;;;;;;5096514;28;20023;-73
2022/01/17 08:53:44;;;;;;;76.53;48.88;;;;;;;;;;5096332;28;20031;-75
2022/01/17 08:56:10;;;;;;;73.15;46.72;;;;;;;;;;5096421;28;20023;-74
2022/01/17 08:58:35;;;;;;;66.80;42.65;;;;;;;;;;5094471;28;20027;-76
2022/01/17 09:01:01;;;;;;;66.97;44.97;;;;;;;;;;5100797;27;20084;-77
2022/01/17 09:03:26;;;;;;;85.10;52.95;;;;;;;;;;5117566;27;20521;-77
2022/01/17 09:05:52;;;;;;;78.20;46.42;;;;;;;;;;5117463;27;20465;-74
2022/01/17 09:08:18;;;;;;;70.45;42.72;;;;;;;;;;5118326;27;20459;-74
2022/01/17 09:10:44;;;;;;;60.88;38.75;;;;;;;;;;5118406;27;20030;-74
2022/01/17 09:13:09;;;;;;;64.35;41.08;;;;;;;;;;5115824;27;20230;-74
2022/01/17 09:15:36;;;;;;;48.25;30.48;;;;;;;;;;5118818;27;20031;-75
2022/01/17 09:18:01;;;;;;;52.88;36.05;;;;;;;;;;5116469;27;20019;-76
2022/01/17 09:20:27;;;;;;;61.28;33.70;;;;;;;;;;5117155;27;20023;-75
2022/01/17 09:22:52;;;;;;;55.50;33.85;;;;;;;;;;5117979;27;20058;-74
2022/01/17 09:25:18;;;;;;;94.38;58.15;;;;;;;;;;5118070;27;20651;-75
2022/01/17 09:27:43;;;;;;;41.72;29.65;;;;;;;;;;5115891;27;20038;-75
2022/01/17 09:30:10;;;;;;;40.05;27.95;;;;;;;;;;5117544;27;20019;-78
2022/01/17 09:32:36;;;;;;;34.92;26.13;;;;;;;;;;5117618;27;20023;-77
2022/01/17 09:35:01;;;;;;;39.60;25.42;;;;;;;;;;5118329;27;20027;-77
2022/01/17 09:37:26;;;;;;;44.47;29.17;;;;;;;;;;5115835;27;20024;-77
2022/01/17 09:39:52;;;;;;;151.95;81.93;;;;;;;;;;5116182;27;20446;-78
2022/01/17 09:42:17;;;;;;;93.18;51.08;;;;;;;;;;5115582;27;20058;-79
2022/01/17 09:44:42;;;;;;;115.43;56.63;;;;;;;;;;5115835;27;20023;-77
2022/01/17 09:47:09;;;;;;;66.03;41.03;;;;;;;;;;5117831;27;20116;-77
2022/01/17 09:49:51;;;;;;;32.58;21.63;;;;;;;;;;5117700;27;20023;-77
2022/01/17 09:54:43;;;;;;;33.28;19.55;;;;;;;;;;5116302;27;20027;-78
2022/01/17 09:57:09;;;;;;;26.92;18.88;;;;;;;;;;5116240;27;20023;-76
2022/01/17 09:59:35;;;;;;;50.58;31.10;;;;;;;;;;5116827;27;20607;-77
2022/01/17 10:02:01;;;;;;;28.20;16.58;;;;;;;;;;5115438;27;20171;-77
2022/01/17 10:04:26;;;;;;;26.48;18.88;;;;;;;;;;5115601;27;20106;-77
2022/01/17 10:06:53;;;;;;;29.58;19.05;;;;;;;;;;5117471;27;20023;-76
2022/01/17 10:09:24;;;;;;;122.65;69.30;;;;;;;;;;5116888;27;20034;-78
2022/01/17 10:12:00;;;;;;;65.47;38.92;;;;;;;;;;5116853;27;20066;-78
2022/01/17 10:14:26;;;;;;;62.65;36.40;;;;;;;;;;5115700;27;20118;-76
2022/01/17 10:16:52;;;;;;;55.13;33.75;;;;;;;;;;5115905;27;20019;-76
2022/01/17 10:19:18;;;;;;;54.08;31.77;;;;;;;;;;5115713;27;20072;-76
2022/01/17 10:21:52;;;;;;;43.08;29.88;;;;;;;;;;5116784;27;20152;-76
2022/01/17 10:37:14;;;;;;;40.20;24.52;;;;;;;;;;5116067;27;20050;-77
2022/01/17 10:39:57;;;;;;;32.65;21.50;;;;;;;;;;5116561;27;20830;-76
2022/01/17 10:42:25;;;;;;;32.90;20.20;;;;;;;;;;5116072;27;20385;-77
2022/01/17 10:44:50;;;;;;;29.35;19.77;;;;;;;;;;5114504;27;20080;-78
2022/01/17 10:47:20;;;;;;;28.00;17.77;;;;;;;;;;5115280;27;20019;-78
2022/01/17 10:49:50;;;;;;;26.05;18.02;;;;;;;;;;5114809;27;20023;-77
2022/01/17 10:52:15;;;;;;;;;;;;;;;;;;5116923;27;20023;-78
2022/01/17 10:54:42;;;;;;;25.40;16.00;;;;;;;;;;5114657;27;19915;-76
2022/01/17 10:57:08;;;;;;;19.50;13.55;;;;;;;;;;5114689;27;20026;-78
2022/01/17 10:59:36;;;;;;;19.60;13.40;;;;;;;;;;5114328;27;20027;-77
2022/01/17 11:02:01;;;;;;;25.23;18.35;;;;;;;;;;5115650;27;20041;-77
2022/01/17 11:04:37;;;;;;;20.77;14.63;;;;;;;;;;5114804;27;20445;-76
2022/01/17 11:07:06;;;;;;;20.17;15.25;;;;;;;;;;5114380;27;20019;-76
2022/01/17 11:09:42;;;;;;;23.77;16.33;;;;;;;;;;5116996;27;20042;-78
2022/01/17 11:12:11;;;;;;;25.33;15.18;;;;;;;;;;5115524;27;20610;-78
2022/01/17 11:14:37;;;;;;;24.02;19.45;;;;;;;;;;5114673;27;20122;-76
2022/01/17 11:17:15;;;;;;;22.60;15.32;;;;;;;;;;5114109;27;20033;-76
2022/01/17 11:22:27;;;;;;;20.48;12.65;;;;;;;;;;5136165;27;20033;-76
2022/01/17 11:24:53;;;;;;;25.00;14.40;;;;;;;;;;5137428;27;20027;-75
2022/01/17 11:27:18;;;;;;;24.15;14.38;;;;;;;;;;5137426;27;20023;-76
2022/01/17 11:29:43;;;;;;;22.20;14.88;;;;;;;;;;5136489;27;20033;-74
2022/01/17 11:32:09;;;;;;;23.77;14.48;;;;;;;;;;5134778;27;20031;-74
2022/01/17 11:34:34;;;;;;;29.80;19.50;;;;;;;;;;5136860;27;20027;-74
2022/01/17 11:37:00;;;;;;;24.42;14.55;;;;;;;;;;5136436;27;21085;-76
2022/01/17 11:39:26;;;;;;;25.40;17.02;;;;;;;;;;5137100;27;20113;-75
2022/01/17 11:41:52;;;;;;;26.33;17.35;;;;;;;;;;5136262;27;20015;-76
2022/01/17 11:44:30;;;;;;;27.70;18.98;;;;;;;;;;5134522;27;20036;-79
2022/01/17 11:46:56;;;;;;;29.45;17.48;;;;;;;;;;5139078;27;20087;-76
2022/01/17 11:49:26;;;;;;;23.63;15.30;;;;;;;;;;5137751;27;20026;-77
2022/01/17 11:51:51;;;;;;;;;;;;;;;;;;5140222;27;20071;-77
2022/01/17 11:54:18;;;;;;;26.90;16.90;;;;;;;;;;5138530;27;19915;-76
2022/01/17 11:56:43;;;;;;;25.73;15.35;;;;;;;;;;5141406;27;20251;-77
2022/01/17 11:59:24;;;;;;;27.63;15.88;;;;;;;;;;5139635;27;20026;-75
2022/01/17 12:02:22;;;;;;;22.00;13.73;;;;;;;;;;5138131;27;20018;-76
2022/01/17 12:05:02;;;;;;;28.13;19.48;;;;;;;;;;5082110;27;20451;-76
2022/01/17 12:07:40;;;;;;;24.70;18.05;;;;;;;;;;5138538;27;20533;-80
2022/01/17 12:10:07;;;;;;;37.38;18.17;;;;;;;;;;5138356;27;20022;-75
2022/01/17 12:12:32;;;;;;;25.50;16.55;;;;;;;;;;5139402;27;20133;-76
2022/01/17 12:15:04;;;;;;;14.32;10.45;;;;;;;;;;5138496;27;20182;-77
2022/01/17 12:17:31;;;;;;;34.95;22.60;;;;;;;;;;5138763;27;20109;-76
2022/01/17 12:20:14;;;;;;;26.60;17.33;;;;;;;;;;5140277;27;20025;-76
2022/01/17 12:22:39;;;;;;;38.88;23.58;;;;;;;;;;5138330;27;20034;-77
2022/01/17 12:25:29;;;;;;;63.38;43.58;;;;;;;;;;5138120;27;20030;-75
2022/01/17 12:28:03;;;;;;;25.33;16.15;;;;;;;;;;5139892;27;20023;-76
2022/01/17 12:30:45;;;;;;;30.90;18.55;;;;;;;;;;5139981;27;20046;-77
2022/01/17 12:33:11;;;;;;;35.88;20.73;;;;;;;;;;5138407;27;20038;-77
2022/01/17 12:35:45;;;;;;;89.43;44.35;;;;;;;;;;5138385;27;20135;-79
2022/01/17 12:38:14;;;;;;;86.90;44.08;;;;;;;;;;5140622;27;20051;-77
2022/01/17 12:40:41;;;;;;;42.95;24.02;;;;;;;;;;5139783;27;20021;-77
2022/01/17 12:43:14;;;;;;;57.58;35.13;;;;;;;;;;5137665;27;20050;-77
2022/01/17 12:45:44;;;;;;;25.48;16.73;;;;;;;;;;5139451;27;20090;-78
2022/01/17 12:48:11;;;;;;;34.08;21.30;;;;;;;;;;5139456;27;20516;-77
2022/01/17 12:50:38;;;;;;;25.02;16.52;;;;;;;;;;5139520;27;20095;-77
2022/01/17 12:53:05;;;;;;;13.05;9.38;;;;;;;;;;5139198;27;20417;-76
2022/01/17 12:55:37;;;;;;;22.10;13.77;;;;;;;;;;5139069;27;20037;-78
2022/01/17 12:58:08;;;;;;;36.80;24.60;;;;;;;;;;5137609;27;20023;-79
2022/01/17 13:00:34;;;;;;;37.78;25.23;;;;;;;;;;5139153;27;20022;-78
2022/01/17 13:02:59;;;;;;;40.33;26.50;;;;;;;;;;5139567;27;20026;-77
2022/01/17 13:05:26;;;;;;;51.65;32.22;;;;;;;;;;5137104;27;20034;-75
2022/01/17 13:07:52;;;;;;;37.15;25.25;;;;;;;;;;5137486;27;20026;-78
2022/01/17 13:10:18;;;;;;;30.25;19.35;;;;;;;;;;5138837;27;20369;-76
2022/01/17 13:12:43;;;;;;;30.17;19.73;;;;;;;;;;5136592;27;20489;-77
2022/01/17 13:15:10;;;;;;;38.72;22.40;;;;;;;;;;5139140;27;20082;-76
2022/01/17 13:17:36;;;;;;;29.50;19.90;;;;;;;;;;5137408;27;20102;-76
2022/01/17 13:20:05;;;;;;;33.75;22.13;;;;;;;;;;5137182;27;20479;-76
2022/01/17 13:22:38;;;;;;;32.80;22.20;;;;;;;;;;5137356;27;20019;-75
2022/01/17 13:25:04;;;;;;;28.75;19.55;;;;;;;;;;5137120;27;20179;-77
2022/01/17 13:27:32;;;;;;;39.35;24.00;;;;;;;;;;5138677;27;20454;-77
2022/01/17 13:29:58;;;;;;;29.85;18.08;;;;;;;;;;5139214;27;20030;-76
2022/01/17 13:32:31;;;;;;;30.00;18.20;;;;;;;;;;5121727;27;20044;-77
2022/01/17 13:35:04;;;;;;;33.78;20.00;;;;;;;;;;5117892;27;20019;-77
2022/01/17 13:37:29;;;;;;;41.15;26.65;;;;;;;;;;5116412;27;20069;-76
2022/01/17 13:39:55;;;;;;;37.70;21.65;;;;;;;;;;5117048;27;20051;-76
2022/01/17 13:42:23;;;;;;;32.05;20.10;;;;;;;;;;5117734;27;20135;-74
2022/01/17 13:44:51;;;;;;;29.85;18.63;;;;;;;;;;5118127;27;20050;-76
2022/01/17 13:47:16;;;;;;;40.28;22.67;;;;;;;;;;5110554;27;20038;-77
2022/01/17 13:49:45;;;;;;;25.77;14.93;;;;;;;;;;5102516;27;20023;-77
2022/01/17 13:52:11;;;;;;;28.20;16.35;;;;;;;;;;5106270;27;20555;-77
2022/01/17 13:54:41;;;;;;;33.50;21.17;;;;;;;;;;5106092;27;20023;-76
2022/01/17 13:57:06;;;;;;;;;;;;;;;;;;5112595;27;20027;-76
2022/01/17 13:59:32;;;;;;;26.87;16.20;;;;;;;;;;5105204;27;20436;-76
2022/01/17 14:01:57;;;;;;;34.28;13.85;;;;;;;;;;5104901;27;20090;-75
2022/01/17 14:04:29;;;;;;;19.92;13.23;;;;;;;;;;5105725;27;20050;-76
2022/01/17 14:06:55;;;;;;;16.58;11.70;;;;;;;;;;5102761;27;20114;-76
2022/01/17 14:09:31;;;;;;;19.60;13.68;;;;;;;;;;5107236;27;20574;-76
2022/01/17 14:11:56;;;;;;;20.17;13.05;;;;;;;;;;5104535;27;20128;-75
2022/01/17 14:14:24;;;;;;;30.20;20.23;;;;;;;;;;5105315;27;20098;-77
2022/01/17 14:16:49;;;;;;;32.92;21.40;;;;;;;;;;5104726;27;20024;-76
2022/01/17 14:19:19;;;;;;;32.25;22.40;;;;;;;;;;5095892;27;20085;-75
2022/01/17 14:21:44;;;;;;;43.00;27.70;;;;;;;;;;5101168;27;20027;-76
2022/01/17 14:24:13;;;;;;;31.92;19.52;;;;;;;;;;5116364;27;20035;-77
2022/01/17 14:26:40;;;;;;;24.02;14.18;;;;;;;;;;5115885;27;20022;-79
2022/01/17 14:29:09;;;;;;;27.27;16.88;;;;;;;;;;5114163;27;20023;-77
2022/01/17 14:31:35;;;;;;;34.72;24.05;;;;;;;;;;5108008;27;20053;-76
2022/01/17 14:34:21;;;;;;;27.13;18.17;;;;;;;;;;5100229;27;20650;-80
2022/01/17 14:37:05;;;;;;;31.25;22.73;;;;;;;;;;5098740;27;20047;-80
2022/01/17 14:39:31;;;;;;;44.53;32.75;;;;;;;;;;5098854;27;20123;-75
2022/01/17 14:42:02;;;;;;;32.58;20.42;;;;;;;;;;5093888;28;20868;-78
2022/01/17 14:44:30;;;;;;;68.40;41.72;;;;;;;;;;5095537;28;21057;-78
2022/01/17 14:46:59;;;;;;;73.57;41.95;;;;;;;;;;5095199;28;20024;-76
2022/01/17 14:49:25;;;;;;;28.13;17.60;;;;;;;;;;5094725;28;20438;-77
2022/01/17 14:51:53;;;;;;;30.48;18.45;;;;;;;;;;5093725;28;20064;-79